createdAt,value
2022-08-09T00:00:21.592Z,99233.50
2022-08-09T00:02:52.627Z,99227.19
2022-08-09T00:08:57.736Z,99221.38
2022-08-09T00:12:03.506Z,99227.47
2022-08-09T00:25:51.843Z,99215.34
2022-08-09T00:29:39.215Z,99215.06
2022-08-09T00:32:01.486Z,99221.63
2022-08-09T00:34:32.682Z,99232.63
2022-08-09T00:37:00.715Z,99228.78
2022-08-09T00:40:14.049Z,99235.91
2022-08-09T00:44:10.835Z,99232.06
2022-08-09T00:45:16.636Z,99226.34
2022-08-09T00:47:47.384Z,99242.78
2022-08-09T00:50:15.175Z,99223.37
2022-08-09T00:52:45.908Z,99223.34
2022-08-09T00:55:16.703Z,99223.13
2022-08-09T00:58:00.513Z,99218.75
2022-08-09T01:00:28.499Z,99220.12
2022-08-09T01:03:05.257Z,99212.16
2022-08-09T01:05:54.613Z,99206.97
2022-08-09T01:08:38.480Z,99213.56
2022-08-09T01:11:26.476Z,99214.38
2022-08-09T01:14:16.253Z,99215.22
2022-08-09T01:16:55.062Z,99215.47
2022-08-09T01:20:01.676Z,99216.56
2022-08-09T01:22:32.809Z,99205.06
2022-08-09T01:25:31.767Z,99208.09
2022-08-09T01:28:15.949Z,99207.28
2022-08-09T01:30:53.142Z,99201.81
2022-08-09T01:33:33.322Z,99211.13
2022-08-09T01:36:08.917Z,99215.50
2022-08-09T01:38:47.326Z,99211.94
2022-08-09T01:41:37.605Z,99222.91
2022-08-09T01:44:44.253Z,99213.03
2022-08-09T01:47:44.600Z,99220.47
2022-08-09T01:51:03.900Z,99224.59
2022-08-09T01:54:09.552Z,99224.84
2022-08-09T01:56:51.472Z,99224.31
2022-08-09T01:59:50.826Z,99230.63
2022-08-09T02:02:18.666Z,99226.53
2022-08-09T02:04:52.385Z,99235.84
2022-08-09T02:08:39.346Z,99232.84
2022-08-09T02:10:30.789Z,99234.22
2022-08-09T02:13:03.211Z,99227.66
2022-08-09T02:15:49.420Z,99228.16
2022-08-09T02:18:24.118Z,99233.94
2022-08-09T02:21:06.775Z,99230.66
2022-08-09T02:23:52.403Z,99230.38
2022-08-09T02:26:27.114Z,99218.59
2022-08-09T02:29:15.097Z,99218.31
2022-08-09T02:31:56.113Z,99226.00
2022-08-09T02:34:40.515Z,99223.00
2022-08-09T02:37:22.476Z,99223.25
2022-08-09T02:40:09.504Z,99218.59
2022-08-09T02:42:45.227Z,99207.63
2022-08-09T02:45:50.658Z,99217.50
2022-08-09T02:48:31.056Z,99213.94
2022-08-09T02:51:06.653Z,99217.22
2022-08-09T02:53:43.140Z,99213.94
2022-08-09T02:56:28.568Z,99214.22
2022-08-09T02:59:01.416Z,99210.38
2022-08-09T03:02:11.957Z,99211.47
2022-08-09T03:04:55.704Z,99208.41
2022-08-09T03:07:55.626Z,99205.97
2022-08-09T03:10:46.055Z,99199.94
2022-08-09T03:13:43.722Z,99202.16
2022-08-09T03:16:48.433Z,99194.19
2022-08-09T03:19:59.553Z,99202.69
2022-08-09T03:22:30.131Z,99198.84
2022-08-09T03:25:26.775Z,99200.78
2022-08-09T03:28:11.367Z,99186.81
2022-08-09T03:30:48.946Z,99196.13
2022-08-09T03:37:56.105Z,99192.28
2022-08-09T03:39:55.631Z,99193.94
2022-08-09T03:42:29.418Z,99196.69
2022-08-09T03:46:02.942Z,99192.28
2022-08-09T03:48:18.956Z,99191.44
2022-08-09T03:51:57.381Z,99191.72
2022-08-09T03:54:18.097Z,99193.37
2022-08-09T03:57:17.944Z,99193.91
2022-08-09T04:00:00.487Z,99199.94
2022-08-09T04:03:05.173Z,99185.41
2022-08-09T04:05:40.230Z,99181.03
2022-08-09T04:08:46.712Z,99185.16
2022-08-09T04:11:55.329Z,99190.91
2022-08-09T04:14:53.963Z,99192.81
2022-08-09T04:17:25.159Z,99187.88
2022-08-09T04:20:03.566Z,99189.00
2022-08-09T04:22:47.714Z,99185.16
2022-08-09T04:25:25.947Z,99190.38
2022-08-09T04:28:02.650Z,99179.41
2022-08-09T04:30:36.879Z,99184.34
2022-08-09T04:33:23.652Z,99183.22
2022-08-09T04:36:40.406Z,99196.38
2022-08-09T04:40:56.304Z,99185.37
2022-08-09T04:42:59.804Z,99187.28
2022-08-09T04:45:36.083Z,99191.69
2022-08-09T04:48:23.762Z,99191.66
2022-08-09T04:51:00.644Z,99196.56
2022-08-09T04:53:41.477Z,99198.72
2022-08-09T04:56:45.313Z,99203.63
2022-08-09T04:59:15.726Z,99201.94
2022-08-09T05:01:42.911Z,99203.81
2022-08-09T05:04:09.892Z,99200.78
2022-08-09T05:06:37.170Z,99197.19
2022-08-09T05:09:04.261Z,99193.84
2022-08-09T05:11:35.257Z,99192.69
2022-08-09T05:14:06.197Z,99205.56
2022-08-09T05:16:43.568Z,99199.19
2022-08-09T05:19:25.714Z,99206.81
2022-08-09T05:21:55.659Z,99208.72
2022-08-09T05:24:24.682Z,99210.59
2022-08-09T05:26:53.154Z,99206.97
2022-08-09T05:29:23.910Z,99206.94
2022-08-09T05:31:57.414Z,99214.53
2022-08-09T05:34:32.655Z,99204.31
2022-08-09T05:37:06.273Z,99225.41
2022-08-09T05:39:42.631Z,99205.03
2022-08-09T05:42:17.375Z,99207.38
2022-08-09T05:44:51.761Z,99213.03
2022-08-09T05:47:23.793Z,99217.31
2022-08-09T05:50:24.209Z,99210.38
2022-08-09T05:52:41.868Z,99213.88
2022-08-09T05:55:09.795Z,99209.59
2022-08-09T05:57:55.611Z,99229.28
2022-08-09T06:00:30.793Z,99217.94
2022-08-09T06:03:02.559Z,99222.97
2022-08-09T06:05:50.311Z,99223.28
2022-08-09T06:08:24.766Z,99221.56
2022-08-09T06:10:56.218Z,99227.00
2022-08-09T06:13:24.662Z,99233.44
2022-08-09T06:15:52.975Z,99234.25
2022-08-09T06:18:23.800Z,99240.69
2022-08-09T06:20:54.622Z,99227.84
2022-08-09T06:23:58.236Z,99220.09
2022-08-09T06:26:13.205Z,99215.44
2022-08-09T06:28:43.480Z,99219.03
2022-08-09T06:31:10.786Z,99220.81
2022-08-09T06:33:41.040Z,99213.28
2022-08-09T06:36:11.878Z,99217.84
2022-08-09T06:38:47.270Z,99218.69
2022-08-09T06:41:18.751Z,99224.31
2022-08-09T06:43:48.379Z,99213.53
2022-08-09T06:46:39.785Z,99232.22
2022-08-09T06:49:03.516Z,99218.84
2022-08-09T06:51:30.842Z,99227.69
2022-08-09T06:54:00.723Z,99233.50
2022-08-09T06:56:31.174Z,99228.22
2022-08-09T07:00:51.428Z,99223.69
2022-08-09T07:01:58.011Z,99232.94
2022-08-09T07:04:27.065Z,99247.16
2022-08-09T07:07:00.057Z,99232.84
2022-08-09T07:09:55.013Z,99226.00
2022-08-09T07:12:20.115Z,99230.72
2022-08-09T07:16:34.945Z,99225.19
2022-08-09T07:18:02.127Z,99237.94
2022-08-09T07:20:29.767Z,99226.28
2022-08-09T07:22:57.358Z,99250.50
2022-08-09T07:25:25.834Z,99247.66
2022-08-09T07:27:56.097Z,99234.56
2022-08-09T07:30:25.302Z,99246.44
2022-08-09T07:32:53.451Z,99239.56
2022-08-09T07:35:22.580Z,99245.16
2022-08-09T07:37:50.695Z,99243.47
2022-08-09T07:40:27.093Z,99248.19
2022-08-09T07:43:00.971Z,99262.56
2022-08-09T07:45:40.344Z,99253.00
2022-08-09T07:48:25.409Z,99242.22
2022-08-09T07:51:10.013Z,99239.31
2022-08-09T07:54:06.607Z,99243.66
2022-08-09T07:56:33.972Z,99248.69
2022-08-09T07:59:01.759Z,99246.37
2022-08-09T08:01:33.083Z,99244.75
2022-08-09T08:04:02.671Z,99252.25
2022-08-09T08:06:32.250Z,99241.09
2022-08-09T08:09:05.095Z,99244.44
2022-08-09T08:12:10.416Z,99250.72
2022-08-09T08:14:24.082Z,99235.41
2022-08-09T08:17:07.316Z,99241.81
2022-08-09T08:19:35.394Z,99264.16
2022-08-09T08:22:03.248Z,99254.72
2022-08-09T08:24:40.205Z,99253.34
2022-08-09T08:27:16.826Z,99250.00
2022-08-09T08:29:48.709Z,99255.63
2022-08-09T08:32:24.354Z,99247.97
2022-08-09T08:34:58.938Z,99251.31
2022-08-09T08:37:41.561Z,99256.84
2022-08-09T08:40:15.600Z,99268.16
2022-08-09T08:42:47.073Z,99262.00
2022-08-09T08:45:37.474Z,99253.97
2022-08-09T08:48:10.278Z,99258.75
2022-08-09T08:50:51.857Z,99253.72
2022-08-09T08:53:22.037Z,99257.16
2022-08-09T08:55:53.368Z,99255.53
2022-08-09T08:58:49.288Z,99246.91
2022-08-09T09:01:35.460Z,99252.97
2022-08-09T09:04:27.110Z,99253.16
2022-08-09T09:06:58.143Z,99253.28
2022-08-09T09:09:58.299Z,99248.88
2022-08-09T09:12:23.471Z,99252.69
2022-08-09T09:15:00.477Z,99251.16
2022-08-09T09:17:48.482Z,99256.59
2022-08-09T09:20:21.431Z,99253.97
2022-08-09T09:22:53.657Z,99260.00
2022-08-09T09:26:02.078Z,99253.97
2022-08-09T09:29:02.237Z,99255.41
2022-08-09T09:32:06.289Z,99248.47
2022-08-09T09:34:24.141Z,99257.75
2022-08-09T09:47:56.533Z,99265.41
2022-08-09T10:01:31.217Z,99248.09
2022-08-09T10:04:30.923Z,99263.31
2022-08-09T10:07:30.095Z,99253.19
2022-08-09T10:13:50.303Z,99237.75
2022-08-09T10:16:58.231Z,99245.31
2022-08-09T10:19:18.100Z,99243.62
2022-08-09T10:22:14.647Z,99248.34
2022-08-09T10:25:34.810Z,99247.72
2022-08-09T10:29:34.833Z,99250.44
2022-08-09T10:35:00.952Z,99241.09
2022-08-09T10:37:46.536Z,99253.87
2022-08-09T10:42:26.960Z,99243.19
2022-08-09T10:43:59.125Z,99247.00
2022-08-09T10:46:57.276Z,99246.84
2022-08-09T10:49:51.698Z,99235.44
2022-08-09T10:52:42.760Z,99244.66
2022-08-09T10:55:26.675Z,99240.63
2022-08-09T10:57:59.879Z,99257.72
2022-08-09T11:00:41.776Z,99253.87
2022-08-09T11:03:51.325Z,99250.22
2022-08-09T11:06:15.558Z,99239.72
2022-08-09T11:08:54.164Z,99251.41
2022-08-09T11:11:23.379Z,99239.19
2022-08-09T11:14:31.791Z,99240.69
2022-08-09T11:16:59.610Z,99238.69
2022-08-09T11:20:12.253Z,99229.88
2022-08-09T11:22:55.294Z,99234.84
2022-08-09T12:15:07.812Z,99185.97
2022-08-09T12:17:43.665Z,99185.97
2022-08-09T12:20:22.206Z,99189.78
2022-08-09T12:23:00.319Z,99195.06
2022-08-09T12:25:35.992Z,99192.75
2022-08-09T13:27:40.262Z,99145.19
2022-08-09T14:33:20.649Z,99122.44
2022-08-09T14:35:52.706Z,99122.44
2022-08-09T14:38:20.372Z,99137.69
2022-08-09T14:41:02.271Z,99130.44
2022-08-09T14:43:47.565Z,99144.12
2022-08-09T14:46:57.965Z,99139.13
2022-08-09T14:49:03.173Z,99122.28
2022-08-09T14:51:30.521Z,99139.16
2022-08-09T14:54:09.688Z,99139.91
2022-08-09T14:56:57.288Z,99129.84
2022-08-09T14:59:23.831Z,99141.13
2022-08-09T15:01:50.676Z,99137.13
2022-08-09T15:04:23.658Z,99151.16
2022-08-09T15:06:51.696Z,99143.47
2022-08-09T15:10:03.501Z,99136.62
2022-08-09T15:12:08.117Z,99126.38
2022-08-09T15:14:38.751Z,99130.38
2022-08-09T15:17:09.891Z,99126.34
2022-08-09T15:19:54.518Z,99125.88
2022-08-09T15:22:26.222Z,99125.19
2022-08-09T15:24:54.299Z,99116.44
2022-08-09T15:27:22.070Z,99119.47
2022-08-09T15:30:59.194Z,99116.16
2022-08-09T15:32:37.058Z,99118.38
2022-08-09T15:35:18.375Z,99127.28
2022-08-09T15:37:56.631Z,99122.97
2022-08-09T15:40:37.947Z,99118.13
2022-08-09T15:43:13.326Z,99125.44
2022-08-09T15:45:51.724Z,99127.78
2022-08-09T15:48:30.658Z,99147.63
2022-08-09T15:51:00.145Z,99111.66
2022-08-09T15:54:05.002Z,99117.91
2022-08-09T15:56:28.994Z,99123.84
2022-08-09T15:58:58.135Z,99121.75
2022-08-09T16:01:25.680Z,99119.69
2022-08-09T16:03:53.228Z,99121.62
2022-08-09T16:06:32.774Z,99123.63
2022-08-09T16:09:05.293Z,99119.91
2022-08-09T16:11:33.176Z,99117.69
2022-08-09T16:14:05.902Z,99125.94
2022-08-09T16:16:37.247Z,99114.34
2022-08-09T16:19:07.608Z,99119.53
2022-08-09T16:21:38.958Z,99105.28
2022-08-09T16:24:19.955Z,99108.06
2022-08-09T16:26:55.220Z,99118.47
2022-08-09T16:29:36.721Z,99107.66
2022-08-09T16:32:18.419Z,99103.25
2022-08-09T16:34:56.691Z,99105.09
2022-08-09T16:37:54.527Z,99094.75
2022-08-09T16:40:20.695Z,99101.13
2022-08-09T16:43:02.441Z,99104.47
2022-08-09T16:45:29.464Z,99107.22
2022-08-09T16:48:42.026Z,99106.84
2022-08-09T16:50:59.314Z,99103.25
2022-08-09T16:53:34.039Z,99096.59
2022-08-09T16:56:07.558Z,99110.66
2022-08-09T16:58:39.879Z,99101.63
2022-08-09T17:01:10.476Z,99108.75
2022-08-09T17:03:37.483Z,99099.06
2022-08-09T17:06:28.092Z,99111.34
2022-08-09T17:09:03.211Z,99111.03
2022-08-09T17:11:40.676Z,99121.00
2022-08-09T17:14:25.358Z,99128.19
2022-08-09T17:16:59.524Z,99117.81
2022-08-09T17:20:05.181Z,99127.81
2022-08-09T17:22:23.774Z,99136.06
2022-08-09T17:24:55.840Z,99136.59
2022-08-09T17:27:31.823Z,99122.72
2022-08-09T17:29:58.724Z,99126.81
2022-08-09T17:32:37.455Z,99131.41
2022-08-09T17:35:12.317Z,99146.56
2022-08-09T17:38:12.578Z,99144.72
2022-08-09T17:40:33.392Z,99125.47
2022-08-09T17:43:32.503Z,99129.94
2022-08-09T17:46:02.919Z,99135.38
2022-08-09T17:48:39.479Z,99132.78
2022-08-09T17:51:18.669Z,99136.19
2022-08-09T17:53:52.925Z,99142.78
2022-08-09T17:56:29.313Z,99136.28
2022-08-09T17:59:11.895Z,99147.56
2022-08-09T18:02:07.785Z,99151.66
2022-08-09T18:04:30.461Z,99157.41
2022-08-09T18:07:00.282Z,99161.63
2022-08-09T18:09:40.639Z,99165.53
2022-08-09T18:12:17.802Z,99172.06
2022-08-09T18:14:53.827Z,99165.84
2022-08-09T18:17:27.624Z,99173.22
2022-08-09T18:20:54.310Z,99178.06
2022-08-09T18:23:05.635Z,99184.25
2022-08-09T18:25:51.076Z,99188.03
2022-08-09T18:30:40.180Z,99189.47
2022-08-09T18:31:08.995Z,99198.56
2022-08-09T18:33:36.326Z,99204.38
2022-08-09T18:36:03.472Z,99201.72
2022-08-09T18:38:31.394Z,99214.22
2022-08-09T18:40:58.542Z,99212.50
2022-08-09T18:43:25.414Z,99213.81
2022-08-09T18:46:50.073Z,99222.94
2022-08-09T18:48:42.523Z,99229.91
2022-08-09T18:51:10.150Z,99236.81
2022-08-09T18:54:01.873Z,99243.41
2022-08-09T18:56:28.028Z,99247.75
2022-08-09T18:58:57.060Z,99248.63
2022-08-09T19:01:24.717Z,99256.38
2022-08-09T19:04:01.728Z,99263.44
2022-08-09T19:06:39.031Z,99260.16
2022-08-09T19:09:34.323Z,99258.56
2022-08-09T19:12:04.918Z,99264.75
2022-08-09T19:14:32.070Z,99263.63
2022-08-09T19:16:58.900Z,99263.72
2022-08-09T19:19:28.184Z,99264.31
2022-08-09T19:22:06.500Z,99275.09
2022-08-09T19:27:21.730Z,99287.25
2022-08-09T19:30:23.104Z,99279.41
2022-08-09T19:32:36.800Z,99287.19
2022-08-09T19:35:04.627Z,99295.25
2022-08-09T19:37:41.063Z,99282.25
2022-08-09T19:40:19.710Z,99283.91
2022-08-09T19:42:47.468Z,99280.59
2022-08-09T19:45:16.811Z,99288.16
2022-08-09T19:47:44.771Z,99285.31
2022-08-09T19:50:49.070Z,99285.41
2022-08-09T19:53:04.117Z,99285.19
2022-08-09T19:56:03.261Z,99289.69
2022-08-09T19:58:29.661Z,99291.13
2022-08-09T20:00:58.054Z,99287.56
2022-08-09T20:03:25.384Z,99287.06
2022-08-09T20:06:24.035Z,99284.25
2022-08-09T20:08:57.576Z,99285.59
2022-08-09T20:11:43.165Z,99282.41
2022-08-09T20:14:15.709Z,99290.75
2022-08-09T20:16:53.727Z,99287.56
2022-08-09T20:19:47.951Z,99296.53
2022-08-09T20:22:10.069Z,99296.41
2022-08-09T20:24:41.072Z,99312.44
2022-08-09T20:27:08.917Z,99307.03
2022-08-09T20:29:39.411Z,99300.09
2022-08-09T20:32:30.509Z,99302.13
2022-08-09T20:34:59.781Z,99299.25
2022-08-09T20:37:37.299Z,99301.03
2022-08-09T20:40:24.678Z,99296.91
2022-08-09T20:43:12.349Z,99296.44
2022-08-09T20:46:00.838Z,99308.97
2022-08-09T20:48:31.116Z,99298.69
2022-08-09T20:51:03.146Z,99297.13
2022-08-09T20:53:35.141Z,99300.50
2022-08-09T20:56:17.412Z,99298.09
2022-08-09T20:58:54.637Z,99300.94
2022-08-09T21:01:34.867Z,99300.94
2022-08-09T21:05:51.580Z,99296.75
2022-08-09T21:07:10.986Z,99303.56
2022-08-09T21:09:45.185Z,99300.56
2022-08-09T21:14:48.207Z,99297.31
2022-08-09T21:18:20.974Z,99305.16
2022-08-09T21:20:18.832Z,99304.19
2022-08-09T21:22:54.276Z,99303.34
2022-08-09T21:25:44.479Z,99300.19
2022-08-09T21:28:34.513Z,99306.13
2022-08-09T21:31:17.803Z,99298.97
2022-08-09T21:33:52.563Z,99295.53
2022-08-09T21:36:28.788Z,99292.78
2022-08-09T21:38:59.895Z,99298.00
2022-08-09T21:42:04.353Z,99294.72
2022-08-09T21:44:34.563Z,99302.16
2022-08-09T21:47:08.634Z,99302.03
2022-08-09T21:49:39.656Z,99302.50
2022-08-09T21:52:16.499Z,99309.31
2022-08-09T21:55:02.782Z,99307.56
2022-08-09T21:57:38.199Z,99306.47
2022-08-09T22:00:32.169Z,99302.47
2022-08-09T22:03:06.345Z,99298.88
2022-08-09T22:05:41.992Z,99304.91
2022-08-09T22:08:13.617Z,99298.09
2022-08-09T22:11:49.808Z,99300.66
2022-08-09T22:13:35.398Z,99305.38
2022-08-09T22:16:08.539Z,99303.38
2022-08-09T22:18:52.220Z,99304.56
2022-08-09T22:21:44.703Z,99297.34
2022-08-09T22:24:16.713Z,99310.88
2022-08-09T22:26:51.111Z,99307.59
2022-08-09T22:29:19.185Z,99310.06
2022-08-09T22:31:56.564Z,99305.16
2022-08-09T22:34:27.359Z,99299.66
2022-08-09T22:36:55.494Z,99300.00
2022-08-09T22:39:55.654Z,99302.22
2022-08-09T22:42:22.415Z,99308.63
2022-08-09T22:45:00.337Z,99300.22
2022-08-09T22:48:14.137Z,99306.03
2022-08-09T22:50:30.811Z,99298.75
2022-08-09T22:52:58.903Z,99297.69
2022-08-09T22:55:39.335Z,99297.16
2022-08-09T22:58:31.020Z,99293.69
2022-08-09T23:01:02.126Z,99294.78
2022-08-09T23:04:02.433Z,99292.34
2022-08-09T23:06:35.306Z,99290.66
2022-08-09T23:09:05.143Z,99288.78
2022-08-09T23:11:32.096Z,99291.78
2022-08-09T23:13:59.777Z,99299.50
2022-08-09T23:16:26.709Z,99298.63
2022-08-09T23:18:53.512Z,99294.53
2022-08-09T23:21:25.190Z,99292.34
2022-08-09T23:24:05.571Z,99300.94
2022-08-09T23:26:37.011Z,99297.59
2022-08-09T23:29:05.926Z,99286.94
2022-08-09T23:31:33.092Z,99285.34
2022-08-09T23:34:00.143Z,99284.28
2022-08-09T23:50:10.988Z,99278.84
2022-08-09T23:52:37.905Z,99277.75
2022-08-09T23:55:06.374Z,99282.97
2022-08-09T23:57:44.972Z,99287.63
